Hlavní strana
METAR-TAF:

METAR-TAF

Letiště :

Limón, Kostarika

zeměpisná šířka: 10-00N, zeměpisná délka: 083-03W, výška: 5 m

Aktuální stav počasí

Zpráva byla vytvořena před 8 hodinami a 28 minutami, v 22:00 UTC
Západní vítr 2 kt
Teplota 26°C
Vlhkost vzduchu 84%
Tlak 1012 hPa
Viditelnost 10 km a více
Skoro jasno ve výšce 2000 ft
Oblačno až skoro zataženo ve výšce 10000 ft

METAR: MRLM 242200Z 27002KT 9999 FEW020 BKN100 26/23 A2989

Čas: 00:28 (06:28 UTC)

Předpověď počasí

Zpráva byla vytvořena před 1 hodinou a 23 minutami, v 05:05 UTC
Předpověď platná od 25 v 06 UTC do 26 v 06 UTC
Západojihozápadní vítr 5 kt
Viditelnost 10 km a více
Polojasno ve výšce 2000 ft
Dočasný
od 25 v 10 UTC do 25 v 14 UTC
Oblačno až skoro zataženo ve výšce 2000 ft
déšť
Změna
od 25 v 14 UTC do 25 v 17 UTC
Severovýchodní vítr 7 kt
Změna
od 26 v 02 UTC do 26 v 04 UTC
Západojihozápadní vítr 5 kt

TAF: MRLM 250505Z 2506/2606 25005KT 9999 SCT020 TX28/2519Z TN21/2510Z TEMPO 2510/2514 RA BKN020 BECMG 2514/2517 04007KT BECMG 2602/2604 25005KT

Stav a předpovědi počasí z více než 4 000 letišť (zprávy METAR a TAF).

Červené a žluté tečky na mapě představují dostupné meteorologické stanice.

Když kurzor umístíte na tečku, zobrazí se název stanice.

Pak kliknutím zobrazíte stav a předpověď počasí.

Chcete-li změnit mapu, kliknutím na zelené tlačítko se znaménkem +mapu přiblížíte, kliknutím na zelené tlačítko se znaménkem – mapu oddálíte a kliknutím na zelené šipky přejdete na sousední mapy.


METAR-TAF: